Terminal Aerodrome Forecast
Issued by NWS Paducah, KY

Home | Current Version | Previous Version | Text Only | Print | Product List | Glossary On
Versions: 1 2 3 4 5 6 7 8 9 10 11 12 13 14 15 16 17
000
FTUS43 KPAH 151600 AAB
TAFEVV
TAF AMD
KEVV 151600Z 1516/1612 25008KT P6SM SKC
     FM151615 27008KT P6SM BKN050
     FM151800 26011KT P6SM BKN035
     FM160100 22004KT P6SM FEW200=

USA.gov is the U.S. government's official web portal to all federal, state and local government web resources and services.